createdAt,value
2019-05-05T00:02:18.134Z,99.90
2019-05-05T00:04:54.999Z,99.90
2019-05-05T00:07:26.111Z,99.90
2019-05-05T00:09:55.559Z,99.90
2019-05-05T00:12:29.337Z,99.90
2019-05-05T00:15:12.183Z,99.90
2019-05-05T00:17:41.924Z,99.90
2019-05-05T00:20:11.895Z,99.90
2019-05-05T00:22:41.367Z,99.90
2019-05-05T00:25:10.812Z,99.90
2019-05-05T00:27:40.244Z,99.90
2019-05-05T00:30:10.438Z,99.90
2019-05-05T00:32:39.874Z,99.90
2019-05-05T00:35:09.743Z,99.90
2019-05-05T00:37:39.217Z,99.90
2019-05-05T00:40:09.646Z,99.90
2019-05-05T00:42:39.093Z,99.90
2019-05-05T00:45:09.075Z,99.90
2019-05-05T00:47:48.944Z,99.90
2019-05-05T00:50:20.074Z,99.90
2019-05-05T00:52:49.512Z,99.90
2019-05-05T00:55:19.120Z,99.90
2019-05-05T00:57:48.570Z,99.90
2019-05-05T01:00:40.155Z,99.90
2019-05-05T01:03:11.434Z,99.90
2019-05-05T01:05:45.708Z,99.90
2019-05-05T01:08:19.426Z,99.90
2019-05-05T01:10:48.879Z,99.90
2019-05-05T01:13:18.494Z,99.90
2019-05-05T01:15:47.960Z,99.90
2019-05-05T01:18:17.373Z,99.90
2019-05-05T01:20:46.819Z,99.90
2019-05-05T01:23:16.284Z,99.90
2019-05-05T01:25:48.628Z,99.90
2019-05-05T01:28:17.002Z,99.90
2019-05-05T01:30:48.107Z,99.90
2019-05-05T01:33:22.200Z,99.90
2019-05-05T01:35:51.643Z,99.90
2019-05-05T01:38:25.483Z,99.90
2019-05-05T01:41:05.628Z,99.90
2019-05-05T01:43:35.267Z,99.90
2019-05-05T01:46:05.165Z,99.90
2019-05-05T01:48:35.171Z,99.90
2019-05-05T01:51:05.103Z,99.90
2019-05-05T01:53:35.098Z,99.90
2019-05-05T01:56:04.965Z,99.90
2019-05-05T01:58:35.020Z,99.90
2019-05-05T02:01:05.083Z,99.90
2019-05-05T02:03:35.091Z,99.90
2019-05-05T02:06:05.238Z,99.90
2019-05-05T02:08:35.072Z,99.90
2019-05-05T02:11:05.224Z,99.90
2019-05-05T02:13:34.808Z,99.90
2019-05-05T02:16:04.784Z,99.90
2019-05-05T02:18:34.722Z,99.90
2019-05-05T02:21:07.682Z,99.90
2019-05-05T02:23:37.966Z,99.90
2019-05-05T02:26:08.821Z,99.90
2019-05-05T02:28:45.214Z,99.90
2019-05-05T02:31:32.280Z,99.90
2019-05-05T02:34:01.835Z,99.90
2019-05-05T02:36:31.284Z,99.90
2019-05-05T02:39:00.741Z,99.90
2019-05-05T02:41:31.421Z,99.90
2019-05-05T02:44:01.302Z,99.90
2019-05-05T02:46:35.439Z,99.90
2019-05-05T02:49:05.775Z,99.90
2019-05-05T02:51:36.934Z,99.90
2019-05-05T02:54:07.152Z,99.90
2019-05-05T02:56:49.660Z,99.90
2019-05-05T02:59:28.403Z,99.90
2019-05-05T03:02:06.114Z,99.90
2019-05-05T03:04:35.744Z,99.90
2019-05-05T03:07:08.377Z,99.90
2019-05-05T03:09:38.531Z,99.90
2019-05-05T03:12:11.183Z,99.90
2019-05-05T03:14:44.609Z,99.90
2019-05-05T03:17:14.924Z,99.90
2019-05-05T03:19:45.461Z,99.90
2019-05-05T03:22:15.734Z,99.90
2019-05-05T03:24:46.177Z,99.90
2019-05-05T03:27:16.291Z,99.90
2019-05-05T03:29:46.978Z,99.90
2019-05-05T03:32:17.098Z,99.90
2019-05-05T03:34:46.687Z,99.90
2019-05-05T03:37:17.221Z,99.90
2019-05-05T03:39:49.921Z,99.90
2019-05-05T03:42:24.369Z,99.90
2019-05-05T03:45:04.572Z,99.90
2019-05-05T03:47:34.016Z,99.90
2019-05-05T03:50:05.816Z,99.90
2019-05-05T03:52:35.826Z,99.90
2019-05-05T03:55:08.079Z,99.90
2019-05-05T03:57:38.735Z,99.90
2019-05-05T04:00:09.418Z,99.90
2019-05-05T04:02:46.452Z,99.90
2019-05-05T04:05:17.738Z,99.90
2019-05-05T04:07:47.400Z,99.90
2019-05-05T04:10:16.825Z,99.90
2019-05-05T04:12:47.213Z,99.90
2019-05-05T04:15:16.729Z,99.90
2019-05-05T04:17:50.235Z,99.90
2019-05-05T04:20:21.340Z,99.90
2019-05-05T04:22:50.771Z,99.90
2019-05-05T04:25:20.213Z,99.90
2019-05-05T04:27:49.725Z,99.90
2019-05-05T04:30:19.183Z,99.90
2019-05-05T04:32:48.610Z,99.90
2019-05-05T04:35:18.090Z,99.90
2019-05-05T04:37:49.590Z,99.90
2019-05-05T04:40:19.045Z,99.90
2019-05-05T04:42:48.517Z,99.90
2019-05-05T04:45:18.205Z,99.90
2019-05-05T04:48:04.636Z,99.90
2019-05-05T04:50:47.968Z,99.90
2019-05-05T04:53:19.074Z,99.90
2019-05-05T04:55:48.520Z,99.90
2019-05-05T04:58:17.948Z,99.90
2019-05-05T05:00:47.420Z,99.90
2019-05-05T05:03:18.509Z,99.90
2019-05-05T05:05:53.577Z,99.90
2019-05-05T05:08:24.737Z,99.90
2019-05-05T05:10:54.414Z,99.90
2019-05-05T05:13:24.602Z,99.90
2019-05-05T05:15:54.193Z,99.90
2019-05-05T05:18:44.657Z,99.90
2019-05-05T05:21:14.667Z,99.90
2019-05-05T05:23:44.616Z,99.90
2019-05-05T05:26:14.156Z,99.90
2019-05-05T05:28:44.784Z,99.90
2019-05-05T05:31:14.438Z,99.90
2019-05-05T05:33:45.688Z,99.90
2019-05-05T05:36:15.146Z,99.90
2019-05-05T05:38:46.235Z,99.90
2019-05-05T05:41:17.352Z,99.90
2019-05-05T05:43:57.750Z,99.90
2019-05-05T05:46:34.853Z,99.90
2019-05-05T05:49:24.030Z,99.90
2019-05-05T05:51:53.874Z,99.90
2019-05-05T05:54:23.584Z,99.90
2019-05-05T05:56:53.814Z,99.90
2019-05-05T05:59:24.684Z,99.90
2019-05-05T06:02:08.433Z,99.90
2019-05-05T06:04:25.380Z,99.90
2019-05-05T06:06:54.852Z,99.90
2019-05-05T06:09:24.297Z,99.90
2019-05-05T06:11:54.195Z,99.90
2019-05-05T06:14:24.693Z,99.90
2019-05-05T06:16:54.185Z,99.90
2019-05-05T06:19:24.638Z,99.90
2019-05-05T06:21:54.399Z,99.90
2019-05-05T06:24:24.069Z,99.90
2019-05-05T06:26:54.746Z,99.90
2019-05-05T06:29:24.375Z,99.90
2019-05-05T06:31:53.944Z,99.90
2019-05-05T06:34:24.423Z,99.90
2019-05-05T06:36:53.976Z,99.90
2019-05-05T06:39:24.186Z,99.90
2019-05-05T06:42:01.189Z,99.90
2019-05-05T06:44:33.799Z,99.90
2019-05-05T06:47:05.135Z,99.90
2019-05-05T06:49:34.736Z,99.90
2019-05-05T06:52:04.355Z,99.90
2019-05-05T06:54:34.822Z,99.90
2019-05-05T06:57:04.697Z,99.90
2019-05-05T06:59:34.890Z,99.90
2019-05-05T07:02:04.639Z,99.90
2019-05-05T07:04:34.207Z,99.90
2019-05-05T07:07:05.234Z,99.90
2019-05-05T07:09:34.876Z,99.90
2019-05-05T07:12:04.790Z,99.90
2019-05-05T07:14:34.274Z,99.90
2019-05-05T07:17:05.087Z,99.90
2019-05-05T07:19:35.738Z,99.90
2019-05-05T07:22:05.256Z,99.90
2019-05-05T07:24:34.806Z,99.90
2019-05-05T07:27:04.919Z,99.90
2019-05-05T07:29:34.484Z,99.90
2019-05-05T07:32:04.239Z,99.90
2019-05-05T07:34:35.478Z,99.90
2019-05-05T07:37:04.928Z,99.90
2019-05-05T07:39:34.394Z,99.90
2019-05-05T07:42:04.502Z,99.90
2019-05-05T07:44:34.101Z,99.90
2019-05-05T07:47:03.730Z,99.90
2019-05-05T07:49:33.609Z,99.90
2019-05-05T07:52:04.086Z,99.90
2019-05-05T07:54:34.205Z,99.90
2019-05-05T07:57:04.300Z,99.90
2019-05-05T07:59:34.140Z,99.90
2019-05-05T08:02:04.087Z,99.90
2019-05-05T08:04:34.654Z,99.90
2019-05-05T08:07:04.211Z,99.90
2019-05-05T08:09:33.899Z,99.90
2019-05-05T08:12:04.301Z,99.90
2019-05-05T08:14:33.833Z,99.90
2019-05-05T08:17:04.874Z,99.90
2019-05-05T08:19:36.009Z,99.90
2019-05-05T08:22:05.621Z,99.90
2019-05-05T08:24:54.491Z,99.90
2019-05-05T08:27:41.807Z,99.70
2019-05-05T08:30:29.948Z,99.90
2019-05-05T08:32:59.666Z,99.90
2019-05-05T08:35:29.116Z,99.90
2019-05-05T08:37:58.644Z,99.90
2019-05-05T08:40:28.099Z,99.90
2019-05-05T08:42:59.189Z,97.10
2019-05-05T08:45:28.643Z,99.90
2019-05-05T08:47:58.095Z,97.70
2019-05-05T08:50:27.517Z,98.30
2019-05-05T08:52:56.977Z,98.70
2019-05-05T08:55:28.400Z,97.30
2019-05-05T08:57:57.586Z,97.70
2019-05-05T09:00:27.056Z,94.90
2019-05-05T09:02:56.592Z,95.50
2019-05-05T09:05:26.019Z,98.10
2019-05-05T09:07:55.503Z,96.30
2019-05-05T09:10:24.923Z,98.80
2019-05-05T09:12:54.414Z,98.50
2019-05-05T09:15:24.412Z,97.50
2019-05-05T09:17:54.666Z,96.50
2019-05-05T09:20:24.386Z,95.40
2019-05-05T09:22:57.201Z,96.90
2019-05-05T09:25:26.875Z,93.60
2019-05-05T09:27:57.991Z,94.90
2019-05-05T09:30:40.486Z,96.00
2019-05-05T09:33:14.326Z,92.70
2019-05-05T09:35:44.874Z,94.30
2019-05-05T09:38:14.857Z,95.60
2019-05-05T09:40:44.494Z,94.70
2019-05-05T09:43:14.824Z,95.20
2019-05-05T09:45:44.450Z,94.90
2019-05-05T09:48:14.170Z,94.30
2019-05-05T09:50:43.935Z,92.30
2019-05-05T09:53:14.615Z,94.40
2019-05-05T09:55:44.501Z,93.30
2019-05-05T09:58:14.047Z,91.70
2019-05-05T10:00:45.372Z,94.30
2019-05-05T10:03:15.198Z,92.90
2019-05-05T10:05:45.971Z,93.80
2019-05-05T10:08:15.429Z,92.50
2019-05-05T10:10:45.009Z,92.90
2019-05-05T10:13:15.047Z,93.90
2019-05-05T10:15:44.668Z,93.20
2019-05-05T10:18:14.324Z,93.30
2019-05-05T10:20:43.925Z,93.70
2019-05-05T10:23:14.254Z,91.30
2019-05-05T10:25:49.535Z,92.50
2019-05-05T10:28:19.198Z,92.00
2019-05-05T10:30:48.812Z,90.40
2019-05-05T10:33:18.361Z,90.20
2019-05-05T10:35:47.810Z,91.20
2019-05-05T10:38:17.258Z,92.20
2019-05-05T10:40:48.475Z,89.00
2019-05-05T10:43:18.015Z,90.00
2019-05-05T10:45:47.439Z,91.30
2019-05-05T10:48:16.896Z,91.50
2019-05-05T10:50:46.348Z,91.20
2019-05-05T10:53:15.816Z,88.40
2019-05-05T10:55:45.523Z,89.00
2019-05-05T10:58:14.985Z,90.40
2019-05-05T11:00:49.073Z,90.50
2019-05-05T11:03:18.867Z,89.60
2019-05-05T11:05:48.918Z,90.50
2019-05-05T11:08:18.732Z,89.30
2019-05-05T11:10:48.278Z,87.50
2019-05-05T11:13:17.718Z,92.60
2019-05-05T11:15:47.209Z,86.70
2019-05-05T11:18:16.683Z,90.00
2019-05-05T11:20:46.934Z,91.80
2019-05-05T11:23:16.381Z,89.50
2019-05-05T11:25:46.031Z,89.90
2019-05-05T11:28:15.641Z,92.40
2019-05-05T11:30:47.067Z,90.00
2019-05-05T11:33:30.208Z,89.20
2019-05-05T11:36:04.524Z,88.20
2019-05-05T11:38:34.049Z,90.10
2019-05-05T11:41:04.946Z,87.90
2019-05-05T11:43:34.550Z,90.20
2019-05-05T11:46:04.051Z,90.00
2019-05-05T11:48:34.466Z,88.90
2019-05-05T11:51:04.601Z,88.10
2019-05-05T11:53:34.208Z,91.10
2019-05-05T11:56:04.324Z,87.60
2019-05-05T11:58:34.177Z,89.50
2019-05-05T12:01:04.004Z,86.10
2019-05-05T12:03:34.116Z,90.10
2019-05-05T12:06:04.111Z,85.40
2019-05-05T12:08:34.563Z,84.30
2019-05-05T12:11:05.512Z,90.60
2019-05-05T12:13:34.954Z,83.30
2019-05-05T12:16:05.994Z,85.60
2019-05-05T12:18:35.543Z,89.30
2019-05-05T12:21:05.473Z,86.90
2019-05-05T12:23:34.967Z,90.50
2019-05-05T12:26:18.482Z,88.00
2019-05-05T12:28:49.545Z,89.40
2019-05-05T12:31:20.620Z,87.80
2019-05-05T12:33:50.085Z,86.80
2019-05-05T12:36:19.533Z,82.10
2019-05-05T12:38:49.123Z,79.60
2019-05-05T12:41:20.920Z,85.10
2019-05-05T12:43:49.745Z,84.20
2019-05-05T12:46:33.745Z,85.70
2019-05-05T12:49:04.987Z,80.70
2019-05-05T12:51:34.590Z,85.20
2019-05-05T12:54:04.586Z,88.50
2019-05-05T12:56:34.247Z,80.30
2019-05-05T12:59:05.721Z,89.20
2019-05-05T13:01:39.804Z,84.00
2019-05-05T13:04:09.249Z,87.40
2019-05-05T13:06:39.328Z,82.20
2019-05-05T13:09:09.602Z,89.60
2019-05-05T13:11:39.050Z,80.60
2019-05-05T13:14:08.492Z,90.30
2019-05-05T13:16:49.894Z,80.70
2019-05-05T13:19:28.659Z,82.70
2019-05-05T13:22:05.441Z,90.30
2019-05-05T13:24:36.524Z,85.90
2019-05-05T13:27:10.589Z,84.20
2019-05-05T13:29:38.847Z,81.30
2019-05-05T13:32:08.290Z,85.50
2019-05-05T13:34:37.742Z,88.50
2019-05-05T13:37:07.217Z,81.70
2019-05-05T13:39:36.662Z,83.70
2019-05-05T13:42:06.111Z,88.30
2019-05-05T13:44:55.137Z,90.80
2019-05-05T13:47:24.578Z,90.00
2019-05-05T13:49:58.384Z,86.30
2019-05-05T13:52:27.840Z,91.20
2019-05-05T13:54:57.291Z,88.60
2019-05-05T13:57:26.736Z,84.80
2019-05-05T13:59:56.221Z,86.00
2019-05-05T14:02:25.671Z,85.30
2019-05-05T14:04:55.122Z,87.50
2019-05-05T14:07:24.613Z,83.00
2019-05-05T14:09:54.904Z,78.00
2019-05-05T14:12:24.470Z,76.20
2019-05-05T14:14:54.644Z,87.10
2019-05-05T14:17:24.227Z,89.50
2019-05-05T14:20:02.500Z,87.00
2019-05-05T14:22:24.862Z,84.70
2019-05-05T14:24:55.952Z,77.80
2019-05-05T14:27:26.949Z,85.00
2019-05-05T14:30:14.416Z,90.00
2019-05-05T14:32:45.797Z,88.20
2019-05-05T14:35:17.476Z,88.20
2019-05-05T14:37:48.568Z,89.70
2019-05-05T14:40:18.165Z,78.30
2019-05-05T14:42:47.758Z,85.20
2019-05-05T14:45:18.515Z,85.70
2019-05-05T14:47:47.952Z,87.10
2019-05-05T14:50:19.285Z,85.30
2019-05-05T14:52:48.948Z,84.40
2019-05-05T14:55:18.732Z,81.30
2019-05-05T14:57:48.183Z,85.40
2019-05-05T15:00:19.631Z,86.50
2019-05-05T15:02:49.121Z,84.20
2019-05-05T15:05:36.462Z,77.50
2019-05-05T15:08:08.189Z,81.90
2019-05-05T15:10:48.290Z,80.80
2019-05-05T15:13:19.152Z,89.50
2019-05-05T15:15:48.866Z,86.60
2019-05-05T15:18:18.350Z,81.90
2019-05-05T15:20:47.875Z,83.20
2019-05-05T15:23:17.326Z,89.50
2019-05-05T15:25:46.804Z,82.00
2019-05-05T15:28:16.325Z,87.20
2019-05-05T15:30:45.797Z,85.00
2019-05-05T15:33:15.246Z,80.80
2019-05-05T15:35:46.567Z,83.90
2019-05-05T15:38:35.234Z,83.20
2019-05-05T15:41:04.823Z,83.60
2019-05-05T15:43:34.286Z,82.80
2019-05-05T15:46:04.446Z,83.60
2019-05-05T15:48:34.180Z,79.60
2019-05-05T15:51:04.203Z,83.50
2019-05-05T15:53:33.943Z,86.80
2019-05-05T15:56:04.519Z,84.10
2019-05-05T15:58:34.435Z,78.70
2019-05-05T16:01:04.016Z,84.90
2019-05-05T16:03:33.454Z,84.40
2019-05-05T16:06:03.778Z,82.80
2019-05-05T16:08:33.966Z,83.90
2019-05-05T16:11:03.896Z,71.30
2019-05-05T16:13:35.346Z,81.60
2019-05-05T16:16:14.563Z,83.20
2019-05-05T16:18:48.627Z,84.30
2019-05-05T16:21:19.860Z,85.00
2019-05-05T16:24:03.599Z,82.90
2019-05-05T16:26:33.089Z,70.80
2019-05-05T16:29:04.174Z,77.70
2019-05-05T16:31:34.273Z,83.90
2019-05-05T16:34:04.009Z,81.60
2019-05-05T16:36:33.601Z,76.70
2019-05-05T16:39:03.352Z,78.10
2019-05-05T16:41:34.051Z,77.00
2019-05-05T16:44:04.465Z,78.50
2019-05-05T16:46:34.197Z,76.50
2019-05-05T16:49:03.773Z,75.90
2019-05-05T16:51:37.410Z,75.10
2019-05-05T16:54:08.525Z,70.50
2019-05-05T16:56:37.969Z,70.60
2019-05-05T16:59:07.415Z,68.70
2019-05-05T17:01:36.890Z,73.90
2019-05-05T17:04:11.113Z,72.60
2019-05-05T17:06:37.514Z,73.60
2019-05-05T17:09:07.514Z,77.20
2019-05-05T17:11:36.939Z,75.30
2019-05-05T17:14:08.384Z,81.50
2019-05-05T17:16:48.614Z,80.50
2019-05-05T17:19:26.684Z,77.10
2019-05-05T17:22:09.493Z,74.20
2019-05-05T17:24:39.036Z,74.90
2019-05-05T17:27:08.411Z,73.40
2019-05-05T17:29:37.861Z,80.40
2019-05-05T17:32:07.339Z,80.00
2019-05-05T17:34:36.794Z,76.00
2019-05-05T17:37:06.214Z,80.50
2019-05-05T17:39:37.347Z,76.90
2019-05-05T17:42:14.296Z,77.60
2019-05-05T17:44:48.111Z,79.90
2019-05-05T17:47:28.198Z,80.70
2019-05-05T17:50:05.086Z,76.70
2019-05-05T17:52:36.180Z,75.20
2019-05-05T17:55:27.484Z,77.30
2019-05-05T17:58:02.360Z,78.90
2019-05-05T18:00:34.310Z,73.60
2019-05-05T18:03:04.340Z,78.80
2019-05-05T18:05:54.472Z,79.40
2019-05-05T18:08:44.340Z,86.10
2019-05-05T18:11:16.954Z,86.70
2019-05-05T18:14:08.005Z,84.80
2019-05-05T18:16:37.457Z,86.10
2019-05-05T18:19:06.950Z,86.50
2019-05-05T18:21:36.409Z,82.40
2019-05-05T18:24:06.010Z,79.70
2019-05-05T18:26:35.469Z,76.60
2019-05-05T18:29:05.111Z,76.30
2019-05-05T18:31:34.768Z,78.60
2019-05-05T18:34:04.336Z,77.10
2019-05-05T18:36:33.752Z,77.70
2019-05-05T18:39:05.054Z,77.70
2019-05-05T18:41:45.247Z,77.80
2019-05-05T18:44:24.187Z,76.80
2019-05-05T18:47:11.912Z,76.50
2019-05-05T18:49:41.549Z,77.20
2019-05-05T18:52:11.239Z,76.80
2019-05-05T18:54:40.731Z,79.70
2019-05-05T18:57:10.250Z,80.40
2019-05-05T18:59:41.047Z,79.60
2019-05-05T19:02:21.197Z,77.90
2019-05-05T19:04:53.736Z,78.20
2019-05-05T19:07:25.025Z,79.90
2019-05-05T19:09:56.924Z,79.10
2019-05-05T19:12:25.704Z,84.30
2019-05-05T19:14:57.030Z,82.40
2019-05-05T19:17:28.687Z,82.90
2019-05-05T19:19:59.357Z,82.20
2019-05-05T19:22:28.782Z,82.30
2019-05-05T19:24:59.907Z,82.50
2019-05-05T19:27:29.332Z,83.10
2019-05-05T19:29:58.790Z,83.40
2019-05-05T19:32:28.240Z,91.50
2019-05-05T19:34:57.749Z,91.60
2019-05-05T19:37:28.280Z,91.20
2019-05-05T19:39:57.751Z,91.50
2019-05-05T19:42:27.319Z,91.40
2019-05-05T19:44:56.717Z,87.60
2019-05-05T19:47:26.208Z,85.30
2019-05-05T19:49:57.299Z,88.00
2019-05-05T19:52:28.332Z,88.70
2019-05-05T19:54:57.911Z,84.60
2019-05-05T19:57:27.369Z,86.80
2019-05-05T19:59:57.366Z,86.00
2019-05-05T20:02:28.885Z,86.90
2019-05-05T20:04:58.331Z,87.30
2019-05-05T20:07:29.391Z,86.90
2019-05-05T20:09:58.832Z,88.00
2019-05-05T20:12:28.294Z,88.90
2019-05-05T20:14:58.690Z,90.40
2019-05-05T20:17:33.734Z,87.70
2019-05-05T20:20:04.622Z,88.10
2019-05-05T20:22:34.792Z,88.70
2019-05-05T20:25:07.823Z,88.80
2019-05-05T20:27:37.280Z,90.00
2019-05-05T20:30:08.734Z,91.70
2019-05-05T20:32:44.117Z,89.60
2019-05-05T20:35:17.907Z,90.10
2019-05-05T20:37:53.949Z,90.30
2019-05-05T20:40:24.564Z,90.70
2019-05-05T20:42:54.371Z,90.60
2019-05-05T20:45:25.722Z,91.00
2019-05-05T20:47:55.198Z,90.80
2019-05-05T20:50:24.788Z,91.30
2019-05-05T20:52:54.306Z,91.00
2019-05-05T20:55:25.804Z,91.40
2019-05-05T20:57:55.138Z,91.60
2019-05-05T21:00:24.823Z,91.80
2019-05-05T21:02:54.298Z,92.00
2019-05-05T21:05:24.211Z,91.70
2019-05-05T21:07:53.688Z,92.30
2019-05-05T21:10:24.157Z,91.70
2019-05-05T21:12:54.525Z,92.20
2019-05-05T21:15:24.654Z,92.50
2019-05-05T21:17:54.448Z,92.40
2019-05-05T21:20:24.240Z,92.80
2019-05-05T21:22:55.279Z,92.80
2019-05-05T21:25:29.405Z,93.10
2019-05-05T21:27:58.837Z,93.20
2019-05-05T21:30:28.266Z,93.20
2019-05-05T21:32:57.751Z,93.50
2019-05-05T21:35:27.351Z,93.60
2019-05-05T21:37:56.785Z,93.70
2019-05-05T21:40:27.081Z,93.80
2019-05-05T21:42:56.563Z,93.70
2019-05-05T21:45:26.005Z,93.70
2019-05-05T21:47:55.487Z,94.00
2019-05-05T21:50:26.558Z,94.10
2019-05-05T21:52:57.655Z,94.10
2019-05-05T21:55:31.448Z,94.40
2019-05-05T21:58:05.104Z,94.80
2019-05-05T22:00:51.082Z,94.60
2019-05-05T22:03:27.329Z,94.80
2019-05-05T22:05:56.764Z,94.80
2019-05-05T22:08:26.310Z,95.10
2019-05-05T22:10:55.763Z,95.00
2019-05-05T22:13:25.236Z,95.00
2019-05-05T22:15:54.739Z,95.20
2019-05-05T22:18:24.226Z,95.40
2019-05-05T22:21:07.039Z,96.50
2019-05-05T22:23:36.818Z,95.00
2019-05-05T22:26:06.408Z,95.20
2019-05-05T22:28:35.877Z,95.40
2019-05-05T22:31:05.594Z,95.80
2019-05-05T22:33:35.068Z,95.90
2019-05-05T22:36:07.061Z,95.90
2019-05-05T22:38:35.699Z,96.00
2019-05-05T22:41:05.155Z,96.10
2019-05-05T22:43:34.751Z,96.00
2019-05-05T22:46:04.296Z,96.30
2019-05-05T22:48:34.502Z,95.90
2019-05-05T22:51:04.164Z,98.20
2019-05-05T22:53:34.643Z,97.60
2019-05-05T22:56:04.544Z,95.30
2019-05-05T22:58:34.802Z,97.00
2019-05-05T23:01:04.661Z,95.80
2019-05-05T23:03:50.800Z,95.90
2019-05-05T23:06:37.961Z,96.30
2019-05-05T23:09:10.610Z,96.00
2019-05-05T23:11:40.057Z,96.40
2019-05-05T23:14:27.617Z,97.90
2019-05-05T23:17:13.369Z,95.60
2019-05-05T23:19:56.492Z,99.00
2019-05-05T23:22:44.176Z,97.20
2019-05-05T23:25:15.355Z,96.60
2019-05-05T23:27:51.066Z,96.90
2019-05-05T23:30:23.862Z,97.30
2019-05-05T23:32:54.856Z,96.50
2019-05-05T23:35:24.618Z,95.50
2019-05-05T23:37:55.233Z,95.70
2019-05-05T23:40:28.386Z,96.50
2019-05-05T23:42:57.846Z,99.90
2019-05-05T23:45:27.343Z,96.40
2019-05-05T23:47:56.801Z,99.30
2019-05-05T23:50:26.233Z,98.80
2019-05-05T23:52:55.710Z,95.50
2019-05-05T23:55:25.160Z,96.60
2019-05-05T23:57:55.075Z,96.00
